Harrington, Delaware
Current Conditions -  °F | °C
As of 10:58 AM on Saturday 25 Oct 2014 (Local Time) from KDOV Reporting Station
Clear Clear  
Wind Chill: 62°   Ceiling: Unl
Heat Index: 62°   Visibility: 10mi
Dew Point: 45°   Wind: 9mph
Humidity: 53%   Direction: 280°W
Pressure: 29.91"   Gusts: NA
Location:  38.92°N, 75.58°W
Report Text: KDOV 251458Z AUTO 28008KT 10SM CLR 17/07 A2991 RMK AO2 SLP132 T01660071 58002
Loading
Personal Weather Stations






























Interactive Weather Map
Tropical Storm Tracking
New forecast layout! Learn more

10-Day Weather Forecast

Advertisements
Track Severe Weather on mobile